createdAt,value
2022-08-03T12:30:31.933Z,948.38
2022-08-03T12:31:31.617Z,948.07
2022-08-03T12:32:31.674Z,947.50
2022-08-03T12:33:31.674Z,947.36
2022-08-03T12:34:31.722Z,947.48
2022-08-03T12:35:31.649Z,948.65
2022-08-03T12:36:31.681Z,947.23
2022-08-03T12:37:32.060Z,949.04
2022-08-03T12:38:31.623Z,948.94
2022-08-03T12:39:31.662Z,947.56
2022-08-03T12:40:31.942Z,947.63
2022-08-03T12:41:31.776Z,947.54
2022-08-03T12:42:31.703Z,947.32
2022-08-03T12:43:37.605Z,947.11
2022-08-03T12:44:31.647Z,947.05
2022-08-03T12:45:31.727Z,948.50
2022-08-03T12:46:31.684Z,948.45
2022-08-03T12:47:31.754Z,947.69
2022-08-03T12:48:31.786Z,948.23
2022-08-03T12:49:31.717Z,948.55
2022-08-03T12:50:31.866Z,947.77
2022-08-03T12:51:32.258Z,948.57
2022-08-03T12:52:31.668Z,947.97
2022-08-03T12:53:31.761Z,947.62
2022-08-03T12:54:31.663Z,949.12
2022-08-03T12:55:31.743Z,947.35
2022-08-03T12:56:31.697Z,947.33
2022-08-03T12:57:31.745Z,947.59
2022-08-03T12:58:31.707Z,948.03
2022-08-03T12:59:35.030Z,948.16
2022-08-03T13:00:31.690Z,947.61
2022-08-03T13:01:34.858Z,947.26
2022-08-03T13:02:34.919Z,946.92
2022-08-03T13:03:38.914Z,946.86
2022-08-03T13:04:34.725Z,949.39
2022-08-03T13:05:34.732Z,947.91
2022-08-03T13:06:34.700Z,947.20
2022-08-03T13:07:34.756Z,946.69
2022-08-03T13:08:34.746Z,946.82
2022-08-03T13:09:34.707Z,947.59
2022-08-03T13:10:34.727Z,947.33
2022-08-03T13:11:53.556Z,946.63
2022-08-03T13:12:34.738Z,946.52
2022-08-03T13:13:34.779Z,946.98
2022-08-03T13:14:34.752Z,946.79
2022-08-03T13:15:38.751Z,947.03
2022-08-03T13:16:34.797Z,946.62
2022-08-03T13:17:34.762Z,946.41
2022-08-03T13:18:34.825Z,946.46
2022-08-03T13:19:34.771Z,947.95
2022-08-03T13:20:34.771Z,946.75
2022-08-03T13:21:34.822Z,946.17
2022-08-03T13:22:34.776Z,947.83
2022-08-03T13:23:34.875Z,945.78
2022-08-03T13:24:34.839Z,945.89
2022-08-03T13:25:34.748Z,945.44
2022-08-03T13:26:34.782Z,945.50
2022-08-03T13:28:03.803Z,945.02
2022-08-03T13:28:35.225Z,945.49
2022-08-03T13:29:34.798Z,945.39
2022-08-03T13:30:34.802Z,946.36
2022-08-03T13:31:34.800Z,945.34
2022-08-03T13:32:34.794Z,945.71
2022-08-03T13:33:34.904Z,945.65
2022-08-03T13:34:34.824Z,944.51
2022-08-03T13:35:34.810Z,943.76
2022-08-03T13:36:59.136Z,944.61
2022-08-03T13:37:34.813Z,945.01
2022-08-03T13:38:34.965Z,943.81
2022-08-03T13:39:34.843Z,943.71
2022-08-03T13:40:41.351Z,944.80
2022-08-03T13:41:34.880Z,944.14
2022-08-03T13:42:34.810Z,944.23
2022-08-03T13:43:34.850Z,944.45
2022-08-03T13:44:34.880Z,944.67
2022-08-03T13:45:34.850Z,945.04
2022-08-03T13:46:34.868Z,944.55
2022-08-03T13:47:34.847Z,945.36
2022-08-03T13:48:34.891Z,944.65
2022-08-03T13:49:34.840Z,945.52
2022-08-03T13:50:37.565Z,944.24
2022-08-03T13:51:34.904Z,944.93
2022-08-03T13:52:34.907Z,944.84
2022-08-03T13:53:34.918Z,945.92
2022-08-03T13:54:34.853Z,945.82
2022-08-03T13:55:34.853Z,946.35
2022-08-03T13:56:34.928Z,945.31
2022-08-03T13:58:11.771Z,945.07
2022-08-03T13:58:35.306Z,945.61
2022-08-03T13:59:34.875Z,945.37
2022-08-03T14:00:34.878Z,946.39
2022-08-03T14:01:54.259Z,947.12
2022-08-03T14:02:34.918Z,945.07
2022-08-03T14:03:34.905Z,946.22
2022-08-03T14:04:34.883Z,945.49
2022-08-03T14:05:34.876Z,945.02
2022-08-03T14:06:34.922Z,946.05
2022-08-03T14:07:34.880Z,945.96
2022-08-03T14:08:35.440Z,946.03
2022-08-03T14:09:34.931Z,945.65
2022-08-03T14:10:34.931Z,945.98
2022-08-03T14:12:07.337Z,946.74
2022-08-03T14:12:34.943Z,947.07
2022-08-03T14:13:34.944Z,945.54
2022-08-03T14:14:35.027Z,945.85
2022-08-03T14:15:38.158Z,945.48
2022-08-03T14:16:34.914Z,945.30
2022-08-03T14:17:42.178Z,945.15
2022-08-03T14:18:34.931Z,947.20
2022-08-03T14:19:52.689Z,947.28
2022-08-03T14:20:37.912Z,945.60
2022-08-03T14:21:34.952Z,945.80
2022-08-03T14:22:35.000Z,946.79
2022-08-03T14:23:35.044Z,946.91
2022-08-03T14:24:35.005Z,945.83
2022-08-03T14:25:44.417Z,946.59
2022-08-03T14:26:35.033Z,946.49
2022-08-03T14:27:35.066Z,946.38
2022-08-03T14:28:35.008Z,946.38
2022-08-03T14:29:35.001Z,947.16
2022-08-03T14:30:35.117Z,946.61
2022-08-03T14:32:11.826Z,946.49
2022-08-03T14:32:35.039Z,946.27
2022-08-03T14:33:35.084Z,946.16
2022-08-03T14:34:35.050Z,946.58
2022-08-03T14:35:34.990Z,945.91
2022-08-03T14:36:35.008Z,946.14
2022-08-03T14:37:35.072Z,945.78
2022-08-03T14:38:34.990Z,945.86
2022-08-03T14:40:00.742Z,945.92
2022-08-03T14:40:34.972Z,946.36
2022-08-03T14:41:34.998Z,946.06
2022-08-03T14:42:34.981Z,947.03
2022-08-03T14:43:34.997Z,946.12
2022-08-03T14:44:35.066Z,945.99
2022-08-03T14:45:35.092Z,946.11
2022-08-03T14:46:34.990Z,946.17
2022-08-03T14:49:02.222Z,946.10
2022-08-03T14:50:31.790Z,946.16
2022-08-03T14:50:32.908Z,946.73
2022-08-03T14:50:42.101Z,946.08
2022-08-03T14:51:51.344Z,946.16
2022-08-03T14:52:35.052Z,946.86
2022-08-03T14:53:35.098Z,947.02
2022-08-03T14:54:35.033Z,947.23
2022-08-03T14:55:38.755Z,948.14
2022-08-03T14:56:35.028Z,947.94
2022-08-03T14:57:35.025Z,947.36
2022-08-03T14:58:35.046Z,946.59
2022-08-03T14:59:56.708Z,947.87
2022-08-03T15:00:35.040Z,948.07
2022-08-03T15:02:03.194Z,946.80
2022-08-03T15:02:35.087Z,948.12
2022-08-03T15:03:35.066Z,946.59
2022-08-03T15:04:35.023Z,947.07
2022-08-03T15:05:35.528Z,947.06
2022-08-03T15:06:35.126Z,947.36
2022-08-03T15:07:35.120Z,947.68
2022-08-03T15:08:35.080Z,947.22
2022-08-03T15:09:35.039Z,946.30
2022-08-03T15:10:40.532Z,946.07
2022-08-03T15:11:35.103Z,947.42
2022-08-03T15:12:35.073Z,946.13
2022-08-03T15:13:35.061Z,946.40
2022-08-03T15:14:35.106Z,946.66
2022-08-03T15:15:35.109Z,946.80
2022-08-03T15:16:35.083Z,947.27
2022-08-03T15:17:35.059Z,947.68
2022-08-03T15:18:35.102Z,948.13
2022-08-03T15:20:01.317Z,947.33
2022-08-03T15:20:43.995Z,946.31
2022-08-03T15:21:46.652Z,946.25
2022-08-03T15:22:35.256Z,946.14
2022-08-03T15:23:35.167Z,946.17
2022-08-03T15:24:35.099Z,946.08
2022-08-03T15:26:04.113Z,946.02
2022-08-03T15:26:40.919Z,946.40
2022-08-03T15:27:35.176Z,946.10
2022-08-03T15:28:37.483Z,946.82
2022-08-03T15:30:05.989Z,946.63
2022-08-03T15:30:35.154Z,948.21
2022-08-03T15:31:35.186Z,948.23
2022-08-03T15:32:35.256Z,946.87
2022-08-03T15:33:35.412Z,947.12
2022-08-03T15:34:35.232Z,947.75
2022-08-03T15:35:35.215Z,947.73
2022-08-03T15:36:35.202Z,947.18
2022-08-03T15:37:35.211Z,946.42
2022-08-03T15:38:36.504Z,946.49
2022-08-03T15:39:35.220Z,947.14
2022-08-03T15:40:35.181Z,946.25
2022-08-03T15:41:35.159Z,946.50
2022-08-03T15:42:35.191Z,947.69
2022-08-03T15:43:35.245Z,948.03
2022-08-03T15:44:35.247Z,947.47
2022-08-03T15:45:36.613Z,946.67
2022-08-03T15:46:35.311Z,947.25
2022-08-03T15:47:35.205Z,946.36
2022-08-03T15:48:35.213Z,947.01
2022-08-03T15:49:35.206Z,947.45
2022-08-03T15:50:35.281Z,947.03
2022-08-03T15:51:35.218Z,947.77
2022-08-03T15:52:35.257Z,946.74
2022-08-03T15:53:35.241Z,946.40
2022-08-03T15:54:35.241Z,947.08
2022-08-03T15:55:35.285Z,947.04
2022-08-03T15:56:35.241Z,946.31
2022-08-03T15:59:04.357Z,947.08
2022-08-03T15:59:04.507Z,946.80
2022-08-03T15:59:35.283Z,946.75
2022-08-03T16:00:35.249Z,947.58
2022-08-03T16:01:35.362Z,948.00
2022-08-03T16:02:35.264Z,947.00
2022-08-03T16:03:35.285Z,946.91
2022-08-03T16:04:35.242Z,946.93
2022-08-03T16:05:35.252Z,947.24
2022-08-03T16:06:36.452Z,946.93
2022-08-03T16:07:35.265Z,947.98
2022-08-03T16:08:35.311Z,948.42
2022-08-03T16:09:43.329Z,946.99
2022-08-03T16:10:35.298Z,946.66
2022-08-03T16:11:35.280Z,946.62
2022-08-03T16:12:35.280Z,946.77
2022-08-03T16:14:13.514Z,946.75
2022-08-03T16:14:46.865Z,947.78
2022-08-03T16:15:38.590Z,947.65
2022-08-03T16:16:35.331Z,947.40
2022-08-03T16:17:35.348Z,946.39
2022-08-03T16:18:35.288Z,946.75
2022-08-03T16:19:35.649Z,946.61
2022-08-03T16:20:35.554Z,948.02
2022-08-03T16:21:38.644Z,946.74
2022-08-03T16:22:35.335Z,946.65
2022-08-03T16:23:35.338Z,947.77
2022-08-03T16:24:35.311Z,948.00
2022-08-03T16:25:35.361Z,946.89
2022-08-03T16:26:35.408Z,947.11
2022-08-03T16:27:37.076Z,947.94
2022-08-03T16:28:35.444Z,946.93
2022-08-03T16:29:35.426Z,946.56
2022-08-03T16:30:35.446Z,947.49
2022-08-03T16:31:35.433Z,947.95
2022-08-03T16:32:35.473Z,948.07
2022-08-03T16:33:35.429Z,947.04
2022-08-03T16:34:37.573Z,947.54
2022-08-03T16:35:35.446Z,947.82
2022-08-03T16:36:35.440Z,947.07
2022-08-03T16:37:38.763Z,948.26
2022-08-03T16:38:35.493Z,948.00
2022-08-03T16:39:35.593Z,948.47
2022-08-03T16:40:35.529Z,947.52
2022-08-03T16:41:53.532Z,948.29
2022-08-03T16:42:35.499Z,948.45
2022-08-03T16:43:35.551Z,947.93
2022-08-03T16:44:35.569Z,946.99
2022-08-03T16:45:35.497Z,946.80
2022-08-03T16:46:35.484Z,946.93
2022-08-03T16:47:35.545Z,947.52
2022-08-03T16:48:35.496Z,946.65
2022-08-03T16:49:53.858Z,948.50
2022-08-03T16:50:35.536Z,947.47
2022-08-03T16:51:40.327Z,947.22
2022-08-03T16:52:35.571Z,949.47
2022-08-03T16:54:05.177Z,950.21
2022-08-03T16:54:35.510Z,946.63
2022-08-03T16:55:43.232Z,947.35
2022-08-03T16:56:36.303Z,948.26
2022-08-03T16:57:57.828Z,948.28
2022-08-03T16:58:42.161Z,949.01
2022-08-03T16:59:36.454Z,949.58
2022-08-03T17:00:41.779Z,948.88
2022-08-03T17:01:35.691Z,947.16
2022-08-03T17:02:35.696Z,948.84
